Sand Spring Valley, Nevada Weather observations

Data are for 10 minute period ending at time listed.
 Day   Time   Solar   Ave.   Ave.  Ave.  Vector  Max.   Baro.   Total    
  of    of     Rad.   Air    Rel.  Wind   Wind   Wind  Press.  Precip.   
Year   Day            Temp.  Hum.  Speed  Dir.   Gust                    
2014   (PST)  Kw/m2    F      %     mph   deg.    mph    mb.     in.     
-------------------------------------------------------------------------
 292   20:00   0.00   52.5    50    4.1   287     5.7   851.2    0.00 
 292   20:10   0.00   50.9    60    2.3   283     4.0   851.2    0.00 
 292   20:20   0.00   48.7    61    2.5   282     4.1   851.3    0.00 
 292   20:30   0.00   49.2    61    3.6   270     4.7   851.4    0.00 
 292   20:40   0.00   50.1    56    2.9   281     4.8   851.4    0.00 
 292   20:50   0.00   50.5    51    3.5   295     4.7   851.4    0.00 
 292   21:00   0.00   50.7    51    4.4   313     4.8   851.4    0.00 
 292   21:10   0.00   50.4    50    4.8   318     5.4   851.5    0.00 
 292   21:20   0.00   49.3    52    2.9     5     4.9   851.6    0.00 
 292   21:30   0.00   48.6    52    0.9    42     4.5   851.7    0.00 
 292   21:40   0.00   47.8    58    0.3    76     1.8   851.7    0.00 
 292   21:50   0.00   47.7    60    0.5   129     2.4   851.8    0.00 
 292   22:00   0.00   47.8    58    2.4   143     6.0   851.8    0.00 
 292   22:10   0.00   46.7    60    1.6   163     3.0   851.8    0.00 
 292   22:20   0.00   46.7    58    1.3   185     3.9   851.8    0.00 
 292   22:30   0.00   45.4    70    2.0   210     3.9   852.0    0.00 
 292   22:40   0.00   44.6    74    1.2   212     3.0   851.9    0.00 
 292   22:50   0.00   44.5    74    0.8   214     2.8   851.9    0.00 
 292   23:00   0.00   44.9    73    1.2   220     2.0   851.9    0.00 
 292   23:10   0.00   44.0    78    1.6   220     2.4   852.0    0.00 
 292   23:20   0.00   41.2    76    2.0   226     3.4   852.0    0.00 
 292   23:30   0.00   40.8    78    0.8   251     2.2   852.0    0.00 
 292   23:40   0.00   40.9    79    0.9   256     2.3   852.0    0.00 
 292   23:50   0.00   41.0    81    1.7   246     2.9   852.0    0.00 
 293    0:00   0.00   40.0    73    3.0   253     4.2   852.1    0.00 
 293    0:10   0.00   40.4    70    2.6   229     4.8   852.2    0.00 
 293    0:20   0.00   41.7    64    2.9   235     5.6   852.2    0.00 
 293    0:30   0.00   40.1    68    2.9   250     3.6   852.3    0.00 
 293    0:40   0.00   39.8    71    4.2   233     5.7   852.4    0.00 
 293    0:50   0.00   40.4    74    3.8   215     5.4   852.4    0.00 
 293    1:00   0.00   40.1    78    3.8   218     5.2   852.3    0.00 
 293    1:10   0.00   40.3    80    2.5   218     4.0   852.4    0.00 
 293    1:20   0.00   39.7    78    2.9   217     4.2   852.4    0.00 
 293    1:30   0.00   39.8    79    3.0   210     3.7   852.4    0.00 
 293    1:40   0.00   40.3    80    2.8   210     3.4   852.4    0.00 
 293    1:50   0.00   40.6    75    2.1   209     2.6   852.3    0.00 
 293    2:00   0.00   40.2    77    1.9   198     2.9   852.3    0.00 
 293    2:10   0.00   39.5    80    0.1   193     1.1   852.3    0.00 
 293    2:20   0.00   38.9    80    0.2   193     0.7   852.2    0.00 
 293    2:30   0.00   37.5    80    1.4   231     2.8   852.3    0.00 
 293    2:40   0.00   36.4    80    2.7   254     3.7   852.3    0.00 
 293    2:50   0.00   37.3    75    3.3   254     4.9   852.3    0.00 
 293    3:00   0.00   38.0    77    2.2   248     3.4   852.3    0.00 
 293    3:10   0.00   38.8    73    3.4   235     4.5   852.3    0.00 
 293    3:20   0.00   39.2    71    3.2   233     4.8   852.3    0.00 
 293    3:30   0.00   39.3    69    3.5   240     5.1   852.3    0.00 
 293    3:40   0.00   38.6    70    4.3   255     5.8   852.3    0.00 
 293    3:50   0.00   38.2    74    4.1   259     6.3   852.3    0.00 
 293    4:00   0.00   38.9    71    5.9   247     6.7   852.3    0.00 
 293    4:10   0.00   38.4    72    3.6   242     5.6   852.4    0.00 
 293    4:20   0.00   37.8    74    1.6   213     3.7   852.4    0.00 
 293    4:30   0.00   37.1    74    3.1   200     4.0   852.5    0.00 
 293    4:40   0.00   37.9    73    1.3   199     2.8   852.5    0.00 
 293    4:50   0.00   37.8    72    0.3   210     0.8   852.5    0.00 
 293    5:00   0.00   36.6    74    2.5   279     4.3   852.6    0.00 
 293    5:10   0.00   35.7    77    3.7   252     4.5   852.7    0.00 
 293    5:20   0.00   36.9    77    3.6   232     5.2   852.7    0.00 
 293    5:30   0.00   37.3    75    2.3   233     3.4   852.7    0.00 
 293    5:40   0.00   36.0    77    3.0   244     3.6   852.7    0.00 
 293    5:50   0.00   35.0    78    2.3   272     3.1   852.7    0.00 
 293    6:00   0.00   34.6    79    1.7   253     2.9   852.7    0.00 
 293    6:10   0.00   35.0    80    0.8   248     2.0   852.8    0.00 
 293    6:20   0.00   35.0    81    0.1   248     1.5   852.9    0.00 
 293    6:30   0.00   35.6    78    1.8   242     2.6   852.9    0.00 
 293    6:40   0.00   36.9    78    1.0   247     1.8   853.0    0.00 
 293    6:50   0.00   38.3    76    2.4   266     3.6   853.0    0.00 
 293    7:00   0.00   40.2    72    2.8   269     3.8   853.0    0.00 
 293    7:10   0.00   42.2    68    2.5   276     3.4   853.1    0.00 
 293    7:20   0.01   44.1    64    2.1   279     3.4   853.1    0.00 
 293    7:30   0.03   46.1    59    1.5   267     2.6   853.3    0.00 
 293    7:40   0.00   48.3    55    0.0   266     1.2   853.2    0.00 
 293    7:50   0.18   50.2    51    0.0     0     0.0   853.1    0.00 
 293    8:00   0.30   52.0    50    0.3   315     2.0   853.0    0.00 
 293    8:10   0.33   52.5    53    0.2    42     2.2   853.1    0.00 
 293    8:20   0.36   52.1    57    2.6    77     3.9   853.0    0.00 
 293    8:30   0.38   52.6    54    1.7    79     3.4   853.0    0.00 
 293    8:40   0.41   54.2    50    1.6    80     3.7   853.0    0.00 
 293    8:50   0.32   55.3    46    1.4    56     3.3   852.9    0.00 
 293    9:00   0.46   56.9    42    1.6    68     3.3   852.9    0.00 
 293    9:10   0.48   58.0    40    1.4    72     3.4   852.9    0.00 
 293    9:20   0.50   59.9    38    0.7    86     2.8   853.0    0.00 
 293    9:30   0.39   60.7    37    1.1    94     2.9   853.0    0.00 
 293    9:40   0.51   62.6    34    0.3    81     2.4   852.9    0.00 
 293    9:50   0.52   63.0    34    2.1   321     4.7   853.0    0.00 
 293   10:00   0.56   63.2    32    1.6   357     4.0   853.0    0.00 
 293   10:10   0.57   65.2    31    0.7   357     4.1   853.0    0.00 
 293   10:20   0.59   66.5    29    1.5    52     4.4   852.8    0.00 
 293   10:30   0.59   66.2    30    2.9   327     4.9   852.6    0.00 
 293   10:40   0.56   67.7    30    1.7    52     4.7   852.6    0.00 
 293   10:50   0.62   68.8    30    2.1    67     4.7   852.5    0.00 
 293   11:00   0.63   69.2    27    3.0    16     6.4   852.1    0.00 
 293   11:10   0.64   71.0    30    2.6   210     7.7   852.0    0.00 
 293   11:20   0.65   72.0    30    5.0   147    15.2   851.8    0.00 
 293   11:30   0.65   72.7    31   13.7   208    21.1   851.6    0.00 
 293   11:40   0.65   72.3    31   14.8   208    20.7   851.4    0.00 
 293   11:50   0.65   72.5    32   14.5   208    21.7   851.3    0.00 
 293   12:00   0.65   72.9    29   14.5   203    21.8   851.1    0.00 
 293   12:10   0.63   72.9    30   14.8   204    21.3   851.0    0.00 
 293   12:20   0.60   73.1    28   15.2   199    22.1   851.0    0.00 
 293   12:30   0.62   73.8    27   13.3   189    24.0   850.8    0.00 
 293   12:40   0.54   74.7    24   16.2   178    27.8   850.6    0.00 
 293   12:50   0.58   74.1    27   11.4   171    16.1   850.6    0.00 
 293   13:00   0.61   74.3    27   11.9   183    25.6   850.5    0.00 
 293   13:10   0.57   74.3    26   12.7   184    22.4   850.4    0.00 
 293   13:20   0.57   74.9    26   13.7   190    23.0   850.4    0.00 
 293   13:30   0.46   74.6    26   14.0   186    22.6   850.3    0.00 
 293   13:40   0.49   73.7    28   13.6   207    23.8   850.3    0.00 
 293   13:50   0.41   73.5    26   13.0   187    20.4   850.2    0.00 
 293   14:00   0.47   74.2    26   15.4   195    23.2   850.1    0.00 
 293   14:10   0.46   73.8    26   15.7   197    22.7   850.1    0.00 
 293   14:20   0.44   73.8    26   14.9   194    24.2   850.0    0.00 
 293   14:30   0.41   73.7    26   15.0   203    21.9   849.9    0.00 
 293   14:40   0.39   72.5    29   13.9   211    19.4   849.8    0.00 
 293   14:50   0.35   72.6    28   16.1   208    23.5   849.8    0.00 
 293   15:00   0.33   72.0    28   16.6   211    22.1   849.7    0.00 
 293   15:10   0.30   72.8    26   14.8   197    19.4   849.8    0.00 
 293   15:20   0.28   73.1    26   12.8   194    18.0   849.7    0.00 
 293   15:30   0.25   73.3    25   14.7   183    24.5   849.7    0.00 
 293   15:40   0.23   73.3    26   14.4   185    21.0   849.6    0.00 
 293   15:50   0.02   71.4    28   13.1   194    20.5   849.5    0.00 
 293   16:00   0.09   69.3    31   10.6   202    17.3   849.5    0.00 
 293   16:10   0.16   70.8    29   12.6   200    20.5   849.4    0.00 
 293   16:20   0.07   69.9    29   14.7   200    20.9   849.4    0.00 
 293   16:30   0.03   68.1    32   13.2   210    18.9   849.4    0.00 
 293   16:40   0.02   67.5    32   11.1   199    18.0   849.4    0.00 
 293   16:50   0.01   66.5    34    9.1   203    13.4   849.3    0.00 
 293   17:00   0.01   66.3    33    9.9   201    15.3   849.3    0.00 
 293   17:10   0.00   65.7    35    8.5   200    13.2   849.3    0.00 
 293   17:20   0.00   64.2    38    6.8   198    13.3   849.3    0.00 
 293   17:30   0.00   65.2    34    6.8   186    11.1   849.3    0.00 
 293   17:40   0.00   65.6    33    6.8   189    11.4   849.4    0.00 
 293   17:50   0.00   65.9    32    8.1   188    12.7   849.5    0.00 
 293   18:00   0.00   66.6    32    9.6   189    14.2   849.5    0.00 
 293   18:10   0.00   67.0    31    9.1   187    15.1   849.5    0.00 
 293   18:20   0.00   67.0    31   10.7   187    17.8   849.5    0.00 
 293   18:30   0.00   67.0    31   10.1   188    16.4   849.5    0.00 
 293   18:40   0.00   67.1    30    9.1   180    18.0   849.5    0.00 
 293   18:50   0.00   66.2    32    8.1   188    12.9   849.6    0.00 
 293   19:00   0.00   65.6    33    7.7   187    12.2   849.6    0.00 
 293   19:10   0.00   66.1    32    9.3   185    14.5   849.6    0.00 
 293   19:20   0.00   64.9    36    7.4   199    11.8   849.6    0.00 
 293   19:30   0.00   62.4    41    6.6   221     9.3   849.6    0.00 
 293   19:40   0.00   61.9    40    5.3   226     7.8   849.6    0.00 
 293   19:50   0.00   62.9    39    5.1   191    10.2   849.5    0.00 

Return to Sand Spring Valley graphs page.


Western Regional Climate Center,wrcc@dri.edu